Time;durP1;ratioP1;P1;durP2;ratioP2;P2;SDS_P1;SDS_P2;PMS_P1;PMS_P2;Temp;Humidity;BMP_temperature;BMP_pressure;BME280_temperature;BME280_humidity;BME280_pressure;Samples;Min_cycle;Max_cycle;Signal;HPM_P1;HPM_P2
2022/03/01 00:04:12;;;;;;;21.00;9.90;;;;;;;1.72;100.00;103126.31;10118868;28;20082;-70
2022/03/01 00:09:09;;;;;;;21.63;10.55;;;;;;;1.75;100.00;103125.91;10145074;28;20057;-71
2022/03/01 00:14:06;;;;;;;22.25;10.48;;;;;;;1.69;100.00;103129.41;10150004;28;20046;-71
2022/03/01 00:19:03;;;;;;;23.45;11.15;;;;;;;1.70;100.00;103123.00;10142729;28;20102;-72
2022/03/01 00:24:01;;;;;;;26.33;12.18;;;;;;;1.63;100.00;103122.13;10119577;28;20524;-70
2022/03/01 00:28:57;;;;;;;23.48;10.60;;;;;;;1.64;100.00;103121.06;10143841;28;20078;-70
2022/03/01 00:33:54;;;;;;;21.67;10.27;;;;;;;1.57;100.00;103122.91;10131807;28;20586;-70
2022/03/01 00:38:51;;;;;;;22.05;10.75;;;;;;;1.58;100.00;103129.94;10156427;28;20432;-72
2022/03/01 00:43:47;;;;;;;20.23;10.00;;;;;;;1.62;100.00;103115.88;10157660;28;20046;-70
2022/03/01 00:48:44;;;;;;;21.88;11.20;;;;;;;1.57;100.00;103117.50;10143928;28;20043;-70
2022/03/01 00:53:40;;;;;;;25.42;10.35;;;;;;;1.62;100.00;103104.25;10117272;28;20101;-70
2022/03/01 00:58:37;;;;;;;21.58;9.73;;;;;;;1.40;100.00;103107.03;10128462;28;20472;-69
2022/03/01 01:03:36;;;;;;;21.42;9.32;;;;;;;1.49;100.00;103104.19;10117412;28;20070;-72
2022/03/01 01:08:33;;;;;;;22.27;11.18;;;;;;;1.57;100.00;103109.41;10135427;28;20047;-71
2022/03/01 01:13:30;;;;;;;20.88;9.90;;;;;;;1.47;100.00;103101.69;10116909;28;20138;-70
2022/03/01 01:18:26;;;;;;;18.92;9.98;;;;;;;1.47;100.00;103102.53;10143426;28;20113;-72
2022/03/01 01:23:23;;;;;;;18.30;9.02;;;;;;;1.39;100.00;103101.84;10124385;28;20092;-72
2022/03/01 01:28:20;;;;;;;20.73;9.40;;;;;;;1.40;100.00;103096.25;10147089;28;20051;-71
2022/03/01 01:33:16;;;;;;;21.60;9.27;;;;;;;1.36;100.00;103084.19;10130396;28;20099;-71
2022/03/01 01:38:12;;;;;;;19.90;9.05;;;;;;;1.36;100.00;103092.28;10148123;28;20070;-71
2022/03/01 01:43:09;;;;;;;20.58;9.75;;;;;;;1.27;100.00;103096.16;10147502;28;20096;-72
2022/03/01 01:48:05;;;;;;;18.02;8.90;;;;;;;1.23;100.00;103092.19;10129170;28;20050;-72
2022/03/01 01:53:03;;;;;;;22.10;9.48;;;;;;;1.28;100.00;103084.38;10143191;28;20042;-71
2022/03/01 01:57:59;;;;;;;19.83;8.48;;;;;;;1.30;100.00;103084.16;10132759;28;20050;-73
2022/03/01 02:02:56;;;;;;;20.17;9.27;;;;;;;1.26;100.00;103083.72;10126779;28;20050;-73
2022/03/01 02:07:55;;;;;;;20.67;8.80;;;;;;;1.30;100.00;103078.75;10132393;28;20046;-72
2022/03/01 02:12:59;;;;;;;21.17;9.68;;;;;;;1.22;100.00;103082.47;10134382;28;20050;-71
2022/03/01 02:17:57;;;;;;;20.95;9.57;;;;;;;1.21;100.00;103083.50;10119314;28;20061;-71
2022/03/01 02:22:55;;;;;;;17.50;9.10;;;;;;;1.20;100.00;103081.81;10121592;28;20050;-72
2022/03/01 02:27:52;;;;;;;19.35;9.15;;;;;;;1.16;100.00;103072.44;10114036;28;20074;-71
2022/03/01 02:32:48;;;;;;;21.52;9.75;;;;;;;1.12;100.00;103061.25;10111870;28;20062;-71
2022/03/01 02:37:45;;;;;;;20.58;9.18;;;;;;;1.05;100.00;103050.44;10112979;28;20083;-71
2022/03/01 02:42:45;;;;;;;22.42;10.45;;;;;;;1.05;100.00;103061.19;10111899;28;20097;-72
2022/03/01 02:47:42;;;;;;;22.98;9.80;;;;;;;0.93;100.00;103046.63;10113901;28;20055;-72
2022/03/01 02:52:38;;;;;;;20.45;9.07;;;;;;;0.97;100.00;103047.88;10146812;28;20057;-72
2022/03/01 02:57:35;;;;;;;17.90;9.02;;;;;;;0.94;100.00;103042.88;10120359;28;20077;-70
2022/03/01 03:02:31;;;;;;;17.45;9.50;;;;;;;0.86;100.00;103032.28;10151699;28;20073;-73
2022/03/01 03:07:43;;;;;;;20.20;9.05;;;;;;;0.73;100.00;103034.84;10141742;28;20050;-73
2022/03/01 03:12:43;;;;;;;21.75;9.32;;;;;;;0.80;100.00;103030.34;10166200;28;20057;-73
2022/03/01 03:17:42;;;;;;;21.23;9.55;;;;;;;0.75;100.00;103043.56;10138054;28;20050;-73
2022/03/01 03:22:39;;;;;;;20.75;9.40;;;;;;;0.75;100.00;103039.00;10139458;28;20094;-73
2022/03/01 03:27:36;;;;;;;18.90;9.30;;;;;;;0.66;100.00;103039.34;10143871;28;20887;-71
2022/03/01 03:32:33;;;;;;;18.85;8.73;;;;;;;0.71;100.00;103039.59;10129689;28;20614;-70
2022/03/01 03:37:30;;;;;;;19.58;8.98;;;;;;;0.65;100.00;103037.66;10116060;28;20149;-71
2022/03/01 03:42:26;;;;;;;21.90;9.07;;;;;;;0.56;100.00;103029.75;10139829;28;20050;-71
2022/03/01 03:47:23;;;;;;;21.08;9.35;;;;;;;0.58;100.00;103037.63;10144800;28;20074;-72
2022/03/01 03:52:22;;;;;;;18.70;8.75;;;;;;;0.51;100.00;103026.81;10162061;28;20676;-72
2022/03/01 03:57:19;;;;;;;20.70;9.88;;;;;;;0.52;100.00;103033.03;10137325;28;20221;-72
2022/03/01 04:02:15;;;;;;;21.13;8.65;;;;;;;0.39;100.00;103029.16;10153564;28;20054;-72
2022/03/01 04:07:12;;;;;;;21.27;9.73;;;;;;;0.36;100.00;103026.88;10131540;28;20065;-72
2022/03/01 04:12:08;;;;;;;17.65;8.57;;;;;;;0.39;100.00;103022.94;10153042;28;20073;-72
2022/03/01 04:17:05;;;;;;;20.65;8.70;;;;;;;0.40;100.00;103009.31;10120556;28;20133;-71
2022/03/01 04:22:02;;;;;;;24.40;10.45;;;;;;;0.26;100.00;103006.72;10146658;28;20083;-71
2022/03/01 04:26:58;;;;;;;18.17;8.77;;;;;;;0.25;100.00;103005.03;10135958;28;20046;-72
2022/03/01 04:31:55;;;;;;;17.90;8.48;;;;;;;0.12;100.00;102995.81;10154464;28;20695;-72
2022/03/01 04:36:52;;;;;;;18.15;8.45;;;;;;;0.13;100.00;102994.78;10147797;28;20057;-72
2022/03/01 04:41:48;;;;;;;20.88;9.02;;;;;;;0.12;100.00;102987.75;10155328;28;20072;-71
2022/03/01 04:46:44;;;;;;;23.52;9.15;;;;;;;0.10;100.00;102986.28;10149576;28;20548;-70
2022/03/01 04:51:41;;;;;;;18.52;9.48;;;;;;;0.01;100.00;102992.81;10124776;28;20054;-71
2022/03/01 04:56:40;;;;;;;20.55;9.43;;;;;;;-0.12;100.00;103002.38;10141077;28;20050;-72
2022/03/01 05:01:37;;;;;;;22.33;9.20;;;;;;;-0.05;100.00;102994.38;10117209;28;20101;-71
2022/03/01 05:06:37;;;;;;;20.73;10.18;;;;;;;-0.22;100.00;102989.25;10127503;28;20496;-70
2022/03/01 05:11:35;;;;;;;19.92;9.02;;;;;;;-0.25;100.00;103000.38;10120701;28;20088;-71
2022/03/01 05:16:32;;;;;;;18.90;8.05;;;;;;;-0.20;100.00;103007.06;10148295;28;20050;-70
2022/03/01 05:21:29;;;;;;;18.02;8.40;;;;;;;-0.29;100.00;103001.78;10145843;28;20145;-71
2022/03/01 05:26:26;;;;;;;18.38;8.80;;;;;;;-0.29;100.00;103001.78;10146718;28;20460;-69
2022/03/01 05:31:23;;;;;;;21.45;10.35;;;;;;;-0.32;100.00;102994.09;10140877;28;20083;-69
2022/03/01 05:36:20;;;;;;;22.70;9.02;;;;;;;-0.35;100.00;102986.38;10146796;28;20161;-70
2022/03/01 05:41:20;;;;;;;18.65;8.70;;;;;;;-0.36;100.00;102990.13;10150001;28;20078;-70
2022/03/01 05:46:16;;;;;;;19.25;8.75;;;;;;;-0.37;100.00;103001.91;10140237;28;20053;-72
2022/03/01 05:51:15;;;;;;;19.77;8.77;;;;;;;-0.31;100.00;102995.75;10139351;28;20524;-73
2022/03/01 05:56:11;;;;;;;18.73;9.10;;;;;;;-0.39;100.00;103009.31;10138547;28;20120;-72
2022/03/01 06:01:07;;;;;;;17.77;8.93;;;;;;;-0.31;100.00;103001.13;10135829;28;20073;-70
2022/03/01 06:06:04;;;;;;;22.08;9.40;;;;;;;-0.39;100.00;102989.69;10138100;28;20047;-70
2022/03/01 06:11:00;;;;;;;20.63;9.85;;;;;;;-0.50;100.00;102994.50;10136907;28;20504;-70
2022/03/01 06:16:00;;;;;;;22.88;9.68;;;;;;;-0.51;100.00;103010.81;10139313;28;20050;-71
2022/03/01 06:20:58;;;;;;;19.25;9.43;;;;;;;-0.49;100.00;103003.38;10124278;28;20532;-71
2022/03/01 06:25:55;;;;;;;18.98;9.27;;;;;;;-0.41;100.00;103005.97;10135359;28;20101;-70
2022/03/01 06:30:51;;;;;;;20.92;9.15;;;;;;;-0.46;100.00;103003.03;10138920;28;20102;-71
2022/03/01 06:35:48;;;;;;;25.90;10.52;;;;;;;-0.48;100.00;103005.06;10139518;28;20042;-70
2022/03/01 06:40:44;;;;;;;18.90;8.75;;;;;;;-0.33;100.00;102994.28;10140756;28;20067;-71
2022/03/01 06:45:47;;;;;;;23.98;10.15;;;;;;;-0.36;100.00;102998.19;10137563;28;20109;-70
2022/03/01 06:50:44;;;;;;;24.10;10.05;;;;;;;-0.36;100.00;102990.13;10138907;28;20050;-71
2022/03/01 06:55:44;;;;;;;22.25;9.95;;;;;;;-0.37;100.00;103001.91;10137399;28;20054;-70
2022/03/01 07:00:41;;;;;;;19.23;9.65;;;;;;;-0.38;100.00;102994.84;10116721;28;20046;-70
2022/03/01 07:05:37;;;;;;;21.77;9.85;;;;;;;-0.38;100.00;102986.78;10126681;28;20061;-71
2022/03/01 07:10:35;;;;;;;20.65;10.25;;;;;;;-0.26;100.00;102982.56;10149590;28;20046;-70
2022/03/01 07:15:33;;;;;;;23.45;10.32;;;;;;;-0.26;100.00;102990.63;10138902;28;20073;-70
2022/03/01 07:20:30;;;;;;;22.98;9.43;;;;;;;-0.25;100.00;102989.63;10143157;28;20046;-71
2022/03/01 07:25:27;;;;;;;23.27;9.52;;;;;;;-0.23;100.00;102998.34;10148496;28;20080;-70
2022/03/01 07:30:25;;;;;;;28.88;11.55;;;;;;;-0.22;100.00;102997.31;10116476;28;20050;-71
2022/03/01 07:35:23;;;;;;;24.02;10.55;;;;;;;-0.17;100.00;102995.91;10117274;28;20070;-70
2022/03/01 07:40:21;;;;;;;22.83;10.82;;;;;;;-0.10;100.00;103008.41;10124768;28;20050;-71
2022/03/01 07:45:19;;;;;;;24.88;9.30;;;;;;;-0.16;100.00;103008.31;10118236;28;20055;-70
2022/03/01 07:50:18;;;;;;;20.50;10.35;;;;;;;-0.23;100.00;102987.59;10143313;28;20054;-71
2022/03/01 07:55:15;;;;;;;19.90;10.23;;;;;;;-0.13;100.00;102986.44;10155430;28;20467;-71
2022/03/01 08:00:12;;;;;;;23.10;10.98;;;;;;;0.04;100.00;102982.47;10129885;28;20504;-71
2022/03/01 08:05:10;;;;;;;23.63;10.55;;;;;;;0.10;100.00;102981.72;10129825;28;20050;-70
2022/03/01 08:10:23;;;;;;;20.00;9.55;;;;;;;0.15;100.00;102989.22;10155437;28;20462;-70
2022/03/01 08:15:26;;;;;;;22.45;10.23;;;;;;;0.38;100.00;102983.63;10146426;28;20062;-71
2022/03/01 08:20:23;;;;;;;23.73;11.20;;;;;;;0.43;100.00;102970.41;10147994;28;20046;-70
2022/03/01 08:25:20;;;;;;;24.77;11.15;;;;;;;0.47;100.00;102976.25;10131845;28;20109;-71
2022/03/01 08:30:17;;;;;;;20.00;9.93;;;;;;;0.65;100.00;102983.81;10114385;28;20054;-70
2022/03/01 08:35:14;;;;;;;24.15;11.52;;;;;;;0.83;100.00;102986.84;10131196;28;20051;-71
2022/03/01 08:40:12;;;;;;;20.45;10.77;;;;;;;0.77;100.00;102976.88;10145496;28;20101;-70
2022/03/01 08:45:09;;;;;;;26.52;10.93;;;;;;;0.75;100.00;102973.56;10139597;28;20070;-70
2022/03/01 08:50:09;;;;;;;23.42;11.80;;;;;;;0.85;100.00;102963.25;10113398;28;20049;-70
2022/03/01 08:55:26;;;;;;;21.10;10.50;;;;;;;0.92;100.00;102956.03;10133606;28;20065;-72
2022/03/01 09:00:25;;;;;;;18.52;10.27;;;;;;;1.09;100.00;102958.41;10152157;28;20042;-70
2022/03/01 09:05:21;;;;;;;25.83;11.25;;;;;;;1.23;100.00;102952.06;10148642;28;20503;-71
2022/03/01 09:10:21;;;;;;;24.33;11.63;;;;;;;1.38;100.00;102951.94;10150942;28;20054;-71
2022/03/01 09:15:19;;;;;;;29.30;12.07;;;;;;;1.77;100.00;102953.91;10136367;28;20074;-70
2022/03/01 09:20:16;;;;;;;28.20;12.60;;;;;;;2.13;100.00;102963.50;10123562;28;20720;-70
2022/03/01 09:25:13;;;;;;;27.25;11.50;;;;;;;2.40;100.00;102961.66;10124329;28;20051;-71
2022/03/01 09:30:10;;;;;;;40.85;13.30;;;;;;;2.44;100.00;102960.22;10125346;28;20394;-70
2022/03/01 09:35:08;;;;;;;21.42;11.00;;;;;;;2.41;100.00;102957.91;10115072;28;20096;-70
2022/03/01 09:40:06;;;;;;;21.42;11.30;;;;;;;2.77;100.00;102955.81;10150958;28;20042;-71
2022/03/01 09:45:03;;;;;;;24.55;12.02;;;;;;;3.14;100.00;102962.38;10137720;28;20460;-71
2022/03/01 09:50:03;;;;;;;23.40;11.63;;;;;;;3.37;100.00;102961.88;10148719;28;20049;-71
2022/03/01 09:55:00;;;;;;;20.80;11.15;;;;;;;3.64;100.00;102967.16;10137424;28;20603;-71
2022/03/01 09:59:56;;;;;;;22.95;11.52;;;;;;;3.96;100.00;102966.13;10147045;28;20124;-70
2022/03/01 10:04:55;;;;;;;23.35;12.18;;;;;;;4.38;100.00;102955.63;10145072;28;20538;-71
2022/03/01 10:09:53;;;;;;;24.92;12.65;;;;;;;4.28;100.00;102963.41;10148795;28;20050;-69
2022/03/01 10:15:03;;;;;;;22.55;11.77;;;;;;;4.26;100.00;102960.09;10137178;28;20105;-71
2022/03/01 10:20:02;;;;;;;24.20;11.98;;;;;;;4.65;100.00;102958.09;10110056;28;20046;-70
2022/03/01 10:25:07;;;;;;;23.73;11.40;;;;;;;4.64;100.00;102961.84;10128925;28;20120;-71
2022/03/01 10:30:06;;;;;;;21.85;11.18;;;;;;;4.85;98.92;102953.31;10123005;28;20085;-71
2022/03/01 10:35:08;;;;;;;20.73;11.48;;;;;;;5.12;97.93;102958.44;10135152;28;20075;-71
2022/03/01 10:40:19;;;;;;;25.80;12.93;;;;;;;5.39;96.46;102950.00;10130154;28;20058;-71
2022/03/01 10:45:16;;;;;;;20.90;11.00;;;;;;;5.57;94.13;102955.38;10127239;28;20461;-70
2022/03/01 10:50:15;;;;;;;24.58;12.25;;;;;;;5.48;95.54;102951.34;10147895;28;20039;-70
2022/03/01 10:55:43;;;;;;;23.67;11.48;;;;;;;5.56;92.77;102953.72;10151856;28;20685;-69
2022/03/01 11:00:40;;;;;;;22.90;12.05;;;;;;;5.72;94.13;102959.56;10139205;28;20616;-71
2022/03/01 11:05:38;;;;;;;25.77;12.18;;;;;;;6.01;92.97;102961.47;10147838;28;20050;-70
2022/03/01 11:10:57;;;;;;;24.45;12.63;;;;;;;6.39;91.53;102954.00;10150182;28;20688;-70
2022/03/01 11:16:18;;;;;;;23.50;12.57;;;;;;;7.28;88.60;102945.63;10134948;28;20101;-69
2022/03/01 11:21:16;;;;;;;23.10;11.57;;;;;;;7.90;84.24;102939.47;10135432;28;20491;-69
2022/03/01 11:26:15;;;;;;;25.30;12.73;;;;;;;7.65;78.65;102934.38;10152907;28;20057;-69
2022/03/01 11:31:21;;;;;;;24.02;12.02;;;;;;;7.11;77.94;102931.94;10122612;28;20122;-70
2022/03/01 11:36:21;;;;;;;24.98;11.77;;;;;;;7.41;79.62;102941.81;10140668;28;20043;-70
2022/03/01 11:41:22;;;;;;;24.33;11.73;;;;;;;7.53;78.55;102928.97;10160529;28;20101;-70
2022/03/01 11:46:19;;;;;;;22.27;11.18;;;;;;;8.11;75.56;102927.81;10154109;28;20046;-70
2022/03/01 11:51:16;;;;;;;19.15;11.00;;;;;;;8.02;68.81;102923.88;10141701;28;20046;-68
2022/03/01 11:56:13;;;;;;;25.85;11.70;;;;;;;7.95;64.01;102915.03;10142565;28;20142;-70
2022/03/01 12:01:10;;;;;;;20.58;11.63;;;;;;;8.12;69.55;102915.88;10140247;28;20042;-70
2022/03/01 12:06:07;;;;;;;20.20;11.05;;;;;;;8.16;68.43;102914.28;10136019;28;20050;-71
2022/03/01 12:11:04;;;;;;;21.77;11.77;;;;;;;7.79;65.71;102906.56;10138642;28;20046;-71
2022/03/01 12:16:00;;;;;;;21.77;12.18;;;;;;;8.21;62.51;102911.66;10129608;28;20050;-70
2022/03/01 12:21:15;;;;;;;20.65;11.57;;;;;;;8.40;63.41;102912.25;10144536;28;20504;-70
2022/03/01 12:26:14;;;;;;;20.02;11.00;;;;;;;8.25;65.84;102908.44;10142831;28;20096;-71
2022/03/01 12:31:15;;;;;;;21.50;11.40;;;;;;;8.06;66.10;102910.59;10138084;28;20050;-70
2022/03/01 12:36:12;;;;;;;20.83;11.13;;;;;;;7.53;69.12;102899.03;10135948;28;20097;-71
2022/03/01 12:41:10;;;;;;;21.08;10.88;;;;;;;7.54;71.95;102887.06;10135272;28;20514;-71
2022/03/01 12:46:07;;;;;;;24.52;12.40;;;;;;;7.46;72.26;102892.91;10139366;28;20047;-70
2022/03/01 12:51:04;;;;;;;21.08;11.93;;;;;;;7.40;76.17;102893.88;10145826;28;20497;-72
2022/03/01 12:56:01;;;;;;;25.35;10.82;;;;;;;7.33;78.52;102892.13;10136553;28;20077;-71
2022/03/01 13:01:06;;;;;;;20.42;11.00;;;;;;;7.33;77.13;102875.81;10142878;28;20104;-71
2022/03/01 13:06:08;;;;;;;23.02;12.32;;;;;;;7.25;78.68;102884.34;10136181;28;20097;-71
2022/03/01 13:11:09;;;;;;;22.65;11.65;;;;;;;7.09;77.99;102874.22;10136918;28;20050;-72
2022/03/01 13:16:20;;;;;;;20.17;10.80;;;;;;;7.18;78.21;102872.78;10142272;28;20092;-71
2022/03/01 13:21:24;;;;;;;24.33;12.57;;;;;;;7.19;80.78;102862.72;10156526;28;20070;-71
2022/03/01 13:26:21;;;;;;;23.63;11.75;;;;;;;7.22;79.39;102857.63;10134660;28;20042;-71
2022/03/01 13:31:26;;;;;;;20.42;11.18;;;;;;;7.12;79.65;102858.25;10146465;28;20507;-71
2022/03/01 13:36:26;;;;;;;20.55;11.25;;;;;;;7.11;81.75;102851.16;10154990;28;20497;-71
2022/03/01 13:41:27;;;;;;;22.80;10.88;;;;;;;7.19;83.65;102847.22;10156313;28;20054;-71
2022/03/01 13:46:24;;;;;;;22.10;11.65;;;;;;;7.29;81.77;102842.00;10139813;28;20105;-71
2022/03/01 13:51:20;;;;;;;19.95;11.10;;;;;;;7.33;80.99;102843.16;10117362;28;20054;-71
2022/03/01 13:56:21;;;;;;;21.08;10.55;;;;;;;7.41;81.83;102850.09;10149708;28;20043;-71
2022/03/01 14:01:17;;;;;;;20.67;10.75;;;;;;;7.67;83.39;102848.63;10147237;28;20458;-71
2022/03/01 14:06:15;;;;;;;21.30;10.95;;;;;;;7.73;78.13;102847.66;10146703;28;20050;-70
2022/03/01 14:11:16;;;;;;;20.17;11.10;;;;;;;7.98;82.95;102840.97;10149210;28;20133;-71
2022/03/01 14:16:19;;;;;;;27.05;11.55;;;;;;;8.31;77.18;102836.56;10148597;28;20566;-70
2022/03/01 14:21:20;;;;;;;18.92;10.38;;;;;;;8.40;71.78;102840.53;10147855;28;20046;-71
2022/03/01 14:26:17;;;;;;;21.38;12.13;;;;;;;8.51;77.04;102847.78;10145043;28;20081;-71
2022/03/01 14:31:13;;;;;;;21.45;11.90;;;;;;;8.35;75.53;102851.34;10152543;28;20054;-71
2022/03/01 14:36:10;;;;;;;17.48;10.57;;;;;;;8.23;74.84;102857.72;10145613;28;20050;-71
2022/03/01 14:41:07;;;;;;;23.80;11.77;;;;;;;8.08;75.81;102849.31;10128359;28;20075;-72
2022/03/01 14:46:04;;;;;;;20.10;11.73;;;;;;;7.99;79.61;102845.34;10118444;28;20047;-72
2022/03/01 14:51:00;;;;;;;20.45;10.23;;;;;;;7.84;81.66;102837.75;10114329;28;20523;-72
2022/03/01 14:55:57;;;;;;;17.40;10.18;;;;;;;7.74;77.18;102835.69;10125812;28;20105;-71
2022/03/01 15:00:53;;;;;;;25.48;10.68;;;;;;;7.74;77.74;102827.53;10137260;28;20043;-71
2022/03/01 15:05:51;;;;;;;20.45;10.43;;;;;;;7.70;80.76;102828.25;10142159;28;20050;-71
2022/03/01 15:10:47;;;;;;;19.65;9.45;;;;;;;7.64;84.47;102821.91;10146146;28;20130;-71
2022/03/01 15:15:44;;;;;;;21.52;11.13;;;;;;;7.50;87.87;102826.03;10146354;28;20092;-71
2022/03/01 15:20:41;;;;;;;21.95;10.02;;;;;;;7.52;85.52;102819.28;10148000;28;20053;-71
2022/03/01 15:25:37;;;;;;;19.80;10.63;;;;;;;7.43;89.83;102811.75;10146208;28;20054;-71
2022/03/01 15:30:34;;;;;;;20.38;10.75;;;;;;;7.32;98.88;102811.56;10142166;28;20046;-71
2022/03/01 15:35:30;;;;;;;17.95;11.20;;;;;;;7.36;88.22;102814.63;10145457;28;20063;-73
2022/03/01 15:40:27;;;;;;;22.30;10.60;;;;;;;7.28;92.43;102813.09;10159505;28;20415;-74
2022/03/01 15:45:24;;;;;;;27.40;11.80;;;;;;;7.27;92.12;102811.47;10159552;28;20054;-73
2022/03/01 15:50:22;;;;;;;19.90;10.55;;;;;;;7.33;95.78;102818.66;10134400;28;20127;-73
2022/03/01 15:55:19;;;;;;;16.40;9.40;;;;;;;7.35;95.76;102818.41;10166809;28;20492;-73
2022/03/01 16:00:18;;;;;;;22.48;11.07;;;;;;;7.43;95.84;102828.91;10145966;28;20061;-72
2022/03/01 16:05:15;;;;;;;17.23;9.93;;;;;;;7.51;89.62;102816.78;10151214;28;20191;-72
2022/03/01 16:10:12;;;;;;;21.45;10.23;;;;;;;7.35;89.88;102805.59;10157260;28;20093;-72
2022/03/01 16:15:10;;;;;;;19.65;11.55;;;;;;;7.15;87.79;102802.53;10152535;28;20077;-72
2022/03/01 16:20:07;;;;;;;21.02;11.48;;;;;;;6.87;92.99;102812.34;10156820;28;20055;-73
2022/03/01 16:25:05;;;;;;;20.90;11.10;;;;;;;6.79;96.71;102812.72;10136981;28;20050;-72
2022/03/01 16:30:02;;;;;;;25.55;11.35;;;;;;;6.80;94.81;102811.66;10159930;28;20054;-73
2022/03/01 16:34:59;;;;;;;20.67;10.80;;;;;;;6.56;96.34;102804.63;10157147;28;20050;-73
2022/03/01 16:39:56;;;;;;;20.83;10.63;;;;;;;6.36;100.00;102792.25;10121723;28;20532;-73
2022/03/01 16:44:52;;;;;;;24.27;11.02;;;;;;;6.30;100.00;102801.34;10134117;28;20102;-73
2022/03/01 16:49:49;;;;;;;22.70;11.85;;;;;;;6.17;100.00;102817.88;10154217;28;20058;-73
2022/03/01 16:54:45;;;;;;;20.95;11.13;;;;;;;6.17;100.00;102813.28;10151967;28;20042;-73
2022/03/01 16:59:42;;;;;;;20.42;10.88;;;;;;;6.08;100.00;102815.53;10148914;28;20105;-73
2022/03/01 17:04:38;;;;;;;23.27;11.63;;;;;;;6.03;100.00;102812.69;10145160;28;20085;-73
2022/03/01 17:09:35;;;;;;;20.48;11.50;;;;;;;6.02;100.00;102816.47;10154522;28;20047;-73
2022/03/01 17:14:32;;;;;;;19.73;11.63;;;;;;;5.95;100.00;102826.63;10145570;28;20042;-73
2022/03/01 17:19:28;;;;;;;24.02;11.68;;;;;;;5.86;100.00;102814.44;10120584;28;20481;-73
2022/03/01 17:24:26;;;;;;;22.95;11.90;;;;;;;5.84;100.00;102824.69;10141226;28;20066;-73
2022/03/01 17:29:23;;;;;;;23.23;11.18;;;;;;;5.80;100.00;102823.50;10155557;28;20097;-73
2022/03/01 17:34:20;;;;;;;21.25;11.27;;;;;;;5.72;100.00;102821.16;10148045;28;20477;-74
2022/03/01 17:39:17;;;;;;;24.80;12.65;;;;;;;5.67;100.00;102813.69;10131729;28;20401;-73
2022/03/01 17:44:14;;;;;;;19.20;11.32;;;;;;;5.65;100.00;102816.63;10140597;28;20046;-73
2022/03/01 17:49:11;;;;;;;22.05;10.98;;;;;;;5.63;100.00;102829.59;10145722;28;20074;-73
2022/03/01 17:54:07;;;;;;;22.70;12.32;;;;;;;5.59;100.00;102828.44;10148352;28;20453;-73
2022/03/01 17:59:04;;;;;;;21.05;12.05;;;;;;;5.54;100.00;102830.19;10144002;28;20141;-73
2022/03/01 18:04:00;;;;;;;26.45;13.05;;;;;;;5.43;100.00;102823.66;10145606;28;20042;-74
2022/03/01 18:08:57;;;;;;;27.02;13.23;;;;;;;5.37;100.00;102819.19;10137691;28;20468;-74
2022/03/01 18:13:55;;;;;;;25.00;13.07;;;;;;;5.31;100.00;102820.91;10134748;28;20081;-73
2022/03/01 18:18:52;;;;;;;25.33;12.30;;;;;;;5.27;100.00;102809.72;10135830;28;20074;-72
2022/03/01 18:23:48;;;;;;;24.15;12.82;;;;;;;5.24;100.00;102820.19;10137562;28;20133;-72
2022/03/01 18:28:45;;;;;;;23.20;13.05;;;;;;;5.21;100.00;102821.47;10134926;28;20081;-73
2022/03/01 18:33:46;;;;;;;25.08;13.07;;;;;;;5.18;100.00;102800.25;10136093;28;20501;-73
2022/03/01 18:38:45;;;;;;;25.60;13.18;;;;;;;5.20;100.00;102790.00;10141556;28;20073;-73
2022/03/01 18:43:44;;;;;;;21.50;12.63;;;;;;;5.16;100.00;102801.53;10139672;28;20047;-73
2022/03/01 18:48:41;;;;;;;26.52;14.20;;;;;;;5.32;100.00;102808.19;10141343;28;20047;-72
2022/03/01 18:53:39;;;;;;;26.65;13.63;;;;;;;5.32;100.00;102795.44;10139560;28;20046;-71
2022/03/01 18:58:36;;;;;;;21.42;12.10;;;;;;;5.17;100.00;102798.56;10137841;28;20129;-73
2022/03/01 19:03:40;;;;;;;24.23;12.23;;;;;;;5.22;100.00;102801.44;10141426;28;20456;-73
2022/03/01 19:08:36;;;;;;;23.90;12.43;;;;;;;5.25;100.00;102814.53;10144630;28;20054;-73
2022/03/01 19:13:34;;;;;;;27.60;13.15;;;;;;;5.26;100.00;102818.88;10155087;28;20484;-72
2022/03/01 19:18:30;;;;;;;24.55;12.63;;;;;;;5.26;100.00;102802.63;10150057;28;20050;-72
2022/03/01 19:23:27;;;;;;;24.40;12.68;;;;;;;5.20;100.00;102803.56;10151982;28;20046;-72
2022/03/01 19:28:23;;;;;;;23.92;12.40;;;;;;;5.20;100.00;102808.97;10151416;28;20566;-73
2022/03/01 19:33:20;;;;;;;24.75;12.65;;;;;;;5.21;100.00;102805.19;10150617;28;20100;-72
2022/03/01 19:38:17;;;;;;;28.33;13.40;;;;;;;5.20;100.00;102813.59;10147112;28;20093;-73
2022/03/01 19:43:13;;;;;;;23.65;13.15;;;;;;;5.17;100.00;102820.25;10140978;28;20042;-73
2022/03/01 19:48:10;;;;;;;25.85;13.75;;;;;;;5.13;100.00;102821.81;10120115;28;20484;-73
2022/03/01 19:53:08;;;;;;;24.63;12.40;;;;;;;5.11;100.00;102825.81;10153304;28;20508;-72
2022/03/01 19:58:05;;;;;;;26.98;14.38;;;;;;;5.10;100.00;102835.81;10149131;28;20459;-72
2022/03/01 20:03:04;;;;;;;27.60;14.32;;;;;;;5.11;100.00;102823.91;10121964;28;20505;-73
2022/03/01 20:08:00;;;;;;;25.58;14.00;;;;;;;5.01;100.00;102821.75;10141162;28;20049;-73
2022/03/01 20:12:57;;;;;;;28.83;13.90;;;;;;;5.03;100.00;102835.88;10157205;28;20050;-73
2022/03/01 20:17:53;;;;;;;24.33;12.88;;;;;;;5.04;100.00;102839.44;10142941;28;20078;-73
2022/03/01 20:22:52;;;;;;;29.85;14.77;;;;;;;4.98;100.00;102841.16;10147022;28;20558;-73
2022/03/01 20:27:49;;;;;;;28.73;14.73;;;;;;;5.02;100.00;102833.44;10142179;28;20039;-72
2022/03/01 20:32:46;;;;;;;29.02;14.57;;;;;;;4.93;100.00;102834.78;10131298;28;20457;-72
2022/03/01 20:37:42;;;;;;;26.80;14.35;;;;;;;4.99;100.00;102837.41;10149088;28;20076;-72
2022/03/01 20:42:47;;;;;;;28.23;14.68;;;;;;;4.99;100.00;102831.16;10144150;28;20055;-72
2022/03/01 20:47:43;;;;;;;27.73;14.43;;;;;;;4.97;100.00;102830.56;10121287;28;20082;-72
2022/03/01 20:52:42;;;;;;;28.17;14.68;;;;;;;4.96;100.00;102845.16;10138258;28;20385;-72
2022/03/01 20:57:39;;;;;;;27.58;15.60;;;;;;;4.93;100.00;102840.22;10167304;28;20479;-72
2022/03/01 21:02:35;;;;;;;32.42;16.20;;;;;;;4.88;100.00;102831.94;10157906;28;20042;-72
2022/03/01 21:07:32;;;;;;;29.83;16.02;;;;;;;4.85;100.00;102833.22;10154866;28;20055;-72
2022/03/01 21:12:29;;;;;;;27.20;15.63;;;;;;;4.82;100.00;102834.47;10149617;28;20074;-73
2022/03/01 21:17:26;;;;;;;30.15;15.63;;;;;;;4.91;100.00;102820.63;10137237;28;20042;-70
2022/03/01 21:22:23;;;;;;;29.33;15.25;;;;;;;4.96;100.00;102818.06;10130771;28;20049;-64
2022/03/01 21:27:20;;;;;;;27.27;15.10;;;;;;;4.96;100.00;102818.06;10137418;28;20554;-66
2022/03/01 21:32:16;;;;;;;30.00;15.38;;;;;;;4.94;100.00;102825.59;10139929;28;20076;-65
2022/03/01 21:37:13;;;;;;;30.58;16.50;;;;;;;4.85;100.00;102820.50;10135983;28;20109;-65
2022/03/01 21:42:11;;;;;;;28.40;14.68;;;;;;;4.81;100.00;102827.41;10149039;28;20087;-65
2022/03/01 21:47:08;;;;;;;30.13;14.50;;;;;;;4.75;100.00;102816.66;10142797;28;20527;-66
2022/03/01 21:52:06;;;;;;;29.17;15.23;;;;;;;4.72;100.00;102817.94;10150241;28;20125;-65
2022/03/01 21:57:04;;;;;;;27.80;14.73;;;;;;;4.67;100.00;102815.09;10146532;28;20142;-65
2022/03/01 22:02:00;;;;;;;27.08;15.10;;;;;;;4.64;100.00;102808.25;10143446;28;20042;-66
2022/03/01 22:06:57;;;;;;;25.02;14.73;;;;;;;4.66;100.00;102821.53;10148461;28;20125;-66
2022/03/01 22:11:54;;;;;;;28.48;15.40;;;;;;;4.60;100.00;102814.34;10147940;28;20104;-65
2022/03/01 22:16:50;;;;;;;29.08;15.82;;;;;;;4.60;100.00;102803.50;10149157;28;20513;-65
2022/03/01 22:21:47;;;;;;;26.63;15.32;;;;;;;4.54;100.00;102817.94;10142913;28;20448;-65
2022/03/01 22:26:44;;;;;;;30.45;15.63;;;;;;;4.54;100.00;102818.75;10148430;28;20078;-64